Skip Navigation LinksHome page > Weather > Current weather Skip Navigation Links

Current Weather

Ndjamena, Chad

For information only: do not use for flight planning or navigation.
Latest weather
Observation time Saturday, January 31, 2015 11:00 PM WAT
Local time Saturday, January 31, 2015 11:32 PM WAT
Flight conditions Marginal Visual Meteorological Conditions
Winds
Wind direction North-Northwest (330°)
Wind speed 3 mph
Visibility 5 mi.
Sky condition
Ceiling unlimited
Temperature 70°F
Dewpoint 45°F
Altimeter 29.91 in.Hg
Derived measurements
Relative humidity 40%
Density altitude 1150 ft.
Remarks
No significant changes expected in the next two hours.
METAR FTTJ 312200Z 33003KT 8000 NSC 21/07 Q1013 NOSIG

Settings

Location code

InnerDrive.Weather 4.0.5505.0 Release CLR 4.0.30319.34014
Copyright ©2015 Inner Drive Technology. All rights reserved. Portions Copyright ©1986-2015 David Braverman.

Find weather

Site navigation


Skip Navigation Links

Place info

Page info

PayPal - The safer, easier way to pay online!

Return home.

Copyright ©2015 Inner Drive Technology. Purveyors of fine, hand-crafted computer software. Page printed 2015-01-31T22:32:56 UTC.